Terminal Aerodrome Forecast
Issued by NWS

Home | Current Version | Previous Version | Text Only | Print | Product List | Glossary On
Versions: 1 2 3 4 5 6 7 8 9 10 11 12 13 14 15 16 17 18 19 20 21 22
000
FTUS43 KGRB 312334
TAFMTW
TAF
KMTW 312334Z 0100/0124 18010KT P6SM SCT025
     FM010100 19003KT P6SM SKC
     FM010400 VRB03KT 5SM BR SCT015
     FM010900 VRB03KT 3SM BR FEW007 SCT015
      TEMPO 0110/0114 1 1/2SM BR SCT007
     FM011400 21006KT 5SM BR SCT015 SCT200
     FM011800 18010KT P6SM SCT200=

USA.gov is the U.S. government's official web portal to all federal, state and local government web resources and services.